SWA3939 KSAN-KCOS
Flight info
| Callsign | SWA3939 |
|---|---|
| Flight time | N/A |
| Altitude | 39000 |
| Route | ZZOOO4 MTBAL LANCY J78 DRK DEXTR RESER ALS DBRY5 |
| Aircraft | B737/M-SDE2E3GIJ4RWZ/LB1D1 |
Departure
| Time | 2026-04-21 19:00 |
|---|---|
| Airport | San Diego International Airport (KSAN) |
Arrival
| Time | N/A |
|---|---|
| Airport | City of Colorado Springs Municipal Airport (KCOS) |
| Time | Latitude | Longitude | Altitude | Speed | Heading |
|---|---|---|---|---|---|
| 2026-04-21 18:31 | 32.73383 | -117.19859 | 22 ft | 0 kts | 176° |
| 2026-04-21 18:52 | 32.73393 | -117.19860 | 23 ft | 4 kts | 178° |
| 2026-04-21 18:52 | 32.73420 | -117.19859 | 22 ft | 4 kts | 182° |
| 2026-04-21 18:52 | 32.73445 | -117.19859 | 24 ft | 4 kts | 168° |
| 2026-04-21 18:53 | 32.73468 | -117.19872 | 23 ft | 4 kts | 127° |
| 2026-04-21 18:53 | 32.73477 | -117.19893 | 26 ft | 1 kts | 106° |
| 2026-04-21 18:53 | 32.73478 | -117.19897 | 25 ft | 0 kts | 106° |
| 2026-04-21 18:55 | 32.73477 | -117.19892 | 22 ft | 3 kts | 106° |
| 2026-04-21 18:55 | 32.73454 | -117.19798 | 23 ft | 15 kts | 106° |
| 2026-04-21 18:55 | 32.73416 | -117.19646 | 23 ft | 23 kts | 106° |
| 2026-04-21 18:55 | 32.73374 | -117.19466 | 22 ft | 22 kts | 105° |
| 2026-04-21 18:56 | 32.73332 | -117.19290 | 21 ft | 22 kts | 106° |
| 2026-04-21 18:56 | 32.73291 | -117.19123 | 21 ft | 21 kts | 106° |
| 2026-04-21 18:56 | 32.73252 | -117.18960 | 22 ft | 20 kts | 106° |
| 2026-04-21 18:56 | 32.73212 | -117.18799 | 24 ft | 20 kts | 107° |
| 2026-04-21 18:57 | 32.73173 | -117.18646 | 21 ft | 19 kts | 107° |
| 2026-04-21 18:57 | 32.73138 | -117.18496 | 21 ft | 19 kts | 105° |
| 2026-04-21 18:57 | 32.73104 | -117.18351 | 21 ft | 18 kts | 106° |
| 2026-04-21 18:57 | 32.73069 | -117.18211 | 22 ft | 17 kts | 106° |
| 2026-04-21 18:58 | 32.73036 | -117.18077 | 20 ft | 17 kts | 106° |
| 2026-04-21 18:58 | 32.73005 | -117.17947 | 21 ft | 16 kts | 105° |
| 2026-04-21 18:58 | 32.72975 | -117.17822 | 21 ft | 15 kts | 108° |
| 2026-04-21 18:58 | 32.72949 | -117.17703 | 21 ft | 15 kts | 84° |
| 2026-04-21 18:59 | 32.72996 | -117.17604 | 22 ft | 14 kts | 13° |
| 2026-04-21 18:59 | 32.73047 | -117.17688 | 21 ft | 14 kts | 285° |
| 2026-04-21 18:59 | 32.73094 | -117.17888 | 22 ft | 54 kts | 286° |
| 2026-04-21 18:59 | 32.73271 | -117.18618 | 21 ft | 125 kts | 285° |
| 2026-04-21 19:00 | 32.73562 | -117.19776 | 172 ft | 164 kts | 284° |
| 2026-04-21 19:00 | 32.73894 | -117.21099 | 1035 ft | 160 kts | 284° |
| 2026-04-21 19:00 | 32.74199 | -117.22377 | 1711 ft | 169 kts | 283° |
| 2026-04-21 19:00 | 32.74546 | -117.23849 | 2023 ft | 201 kts | 284° |
| 2026-04-21 19:01 | 32.74954 | -117.25564 | 2401 ft | 229 kts | 284° |
| 2026-04-21 19:01 | 32.75398 | -117.27407 | 3209 ft | 232 kts | 285° |
| 2026-04-21 19:01 | 32.75840 | -117.29238 | 4109 ft | 230 kts | 285° |
| 2026-04-21 19:01 | 32.76285 | -117.31076 | 4929 ft | 233 kts | 285° |
| 2026-04-21 19:02 | 32.76483 | -117.32984 | 5705 ft | 235 kts | 261° |
| 2026-04-21 19:02 | 32.75864 | -117.34759 | 6581 ft | 236 kts | 234° |
| 2026-04-21 19:02 | 32.74617 | -117.36020 | 7449 ft | 240 kts | 208° |
| 2026-04-21 19:02 | 32.73012 | -117.36457 | 8368 ft | 245 kts | 182° |
| 2026-04-21 19:03 | 32.71345 | -117.35872 | 9358 ft | 255 kts | 153° |
| 2026-04-21 19:03 | 32.69997 | -117.34452 | 10288 ft | 264 kts | 139° |
| 2026-04-21 19:03 | 32.68825 | -117.32780 | 11051 ft | 270 kts | 136° |
| 2026-04-21 19:03 | 32.67634 | -117.31021 | 11819 ft | 275 kts | 137° |
| 2026-04-21 19:04 | 32.66416 | -117.29252 | 12612 ft | 279 kts | 138° |
| 2026-04-21 19:04 | 32.65172 | -117.27471 | 13425 ft | 283 kts | 139° |
| 2026-04-21 19:04 | 32.63902 | -117.25660 | 14226 ft | 288 kts | 136° |
| 2026-04-21 19:04 | 32.63000 | -117.23449 | 14846 ft | 317 kts | 109° |
| 2026-04-21 19:05 | 32.62678 | -117.20719 | 15062 ft | 348 kts | 101° |
| 2026-04-21 19:05 | 32.62459 | -117.17765 | 15276 ft | 374 kts | 100° |
| 2026-04-21 19:05 | 32.62212 | -117.14592 | 15587 ft | 393 kts | 101° |
| 2026-04-21 19:05 | 32.62003 | -117.11318 | 16207 ft | 405 kts | 93° |
| 2026-04-21 19:06 | 32.62545 | -117.07996 | 16933 ft | 417 kts | 72° |
| 2026-04-21 19:06 | 32.63624 | -117.04786 | 17740 ft | 421 kts | 69° |
| 2026-04-21 19:06 | 32.64744 | -117.01555 | 18452 ft | 426 kts | 70° |
| 2026-04-21 19:06 | 32.65849 | -116.98268 | 19034 ft | 432 kts | 70° |
| 2026-04-21 19:07 | 32.66732 | -116.94859 | 19658 ft | 433 kts | 85° |
| 2026-04-21 19:07 | 32.66856 | -116.91316 | 20346 ft | 430 kts | 94° |
| 2026-04-21 19:07 | 32.66859 | -116.87747 | 21018 ft | 434 kts | 94° |
| 2026-04-21 19:07 | 32.66903 | -116.84141 | 21646 ft | 438 kts | 92° |
| 2026-04-21 19:08 | 32.67177 | -116.80525 | 22261 ft | 447 kts | 78° |
| 2026-04-21 19:08 | 32.68385 | -116.77099 | 22865 ft | 456 kts | 57° |
| 2026-04-21 19:08 | 32.70439 | -116.74234 | 23507 ft | 458 kts | 39° |
| 2026-04-21 19:08 | 32.73110 | -116.72191 | 24011 ft | 457 kts | 21° |
| 2026-04-21 19:09 | 32.76049 | -116.70730 | 24534 ft | 459 kts | 18° |
| 2026-04-21 19:09 | 32.79040 | -116.69339 | 24935 ft | 465 kts | 17° |
| 2026-04-21 19:09 | 32.82068 | -116.67938 | 25425 ft | 468 kts | 18° |
| 2026-04-21 19:09 | 32.85109 | -116.66503 | 25939 ft | 471 kts | 18° |
| 2026-04-21 19:10 | 32.88150 | -116.65036 | 26439 ft | 474 kts | 18° |
| 2026-04-21 19:10 | 32.91217 | -116.63536 | 26923 ft | 477 kts | 18° |
| 2026-04-21 19:10 | 32.94295 | -116.62020 | 27367 ft | 481 kts | 18° |
| 2026-04-21 19:10 | 32.97400 | -116.60490 | 27797 ft | 485 kts | 18° |
| 2026-04-21 19:11 | 33.00520 | -116.58955 | 28236 ft | 488 kts | 18° |
| 2026-04-21 19:11 | 33.03628 | -116.57395 | 28676 ft | 491 kts | 18° |
| 2026-04-21 19:11 | 33.06775 | -116.55760 | 29088 ft | 494 kts | 19° |
| 2026-04-21 19:11 | 33.09929 | -116.54097 | 29567 ft | 496 kts | 19° |
| 2026-04-21 19:12 | 33.12021 | -116.52990 | 29849 ft | 498 kts | 19° |
| 2026-04-21 19:12 | 33.16280 | -116.50743 | 30302 ft | 503 kts | 19° |
| 2026-04-21 19:12 | 33.19495 | -116.49053 | 30609 ft | 505 kts | 18° |
| 2026-04-21 19:12 | 33.22721 | -116.47360 | 30945 ft | 507 kts | 18° |
| 2026-04-21 19:13 | 33.25959 | -116.45662 | 31287 ft | 509 kts | 18° |
| 2026-04-21 19:13 | 33.29201 | -116.43960 | 31655 ft | 510 kts | 18° |
| 2026-04-21 19:13 | 33.32456 | -116.42250 | 31947 ft | 511 kts | 18° |
| 2026-04-21 19:13 | 33.35715 | -116.40536 | 32281 ft | 512 kts | 18° |
| 2026-04-21 19:14 | 33.38914 | -116.38599 | 32631 ft | 521 kts | 29° |
| 2026-04-21 19:14 | 33.41662 | -116.35728 | 32977 ft | 530 kts | 47° |
| 2026-04-21 19:14 | 33.43884 | -116.32200 | 33467 ft | 530 kts | 52° |
| 2026-04-21 19:14 | 33.45980 | -116.28571 | 33871 ft | 530 kts | 53° |
| 2026-04-21 19:15 | 33.48026 | -116.24972 | 34072 ft | 531 kts | 53° |
| 2026-04-21 19:15 | 33.50109 | -116.21352 | 34590 ft | 524 kts | 52° |
| 2026-04-21 19:15 | 33.52197 | -116.17791 | 35081 ft | 519 kts | 52° |
| 2026-04-21 19:15 | 33.54281 | -116.14288 | 35483 ft | 515 kts | 51° |
| 2026-04-21 19:16 | 33.56371 | -116.10797 | 35763 ft | 515 kts | 51° |
| 2026-04-21 19:16 | 33.58456 | -116.07307 | 36048 ft | 514 kts | 52° |
| 2026-04-21 19:16 | 33.60492 | -116.03786 | 36357 ft | 514 kts | 57° |
| 2026-04-21 19:16 | 33.62111 | -115.99966 | 36689 ft | 513 kts | 65° |
| 2026-04-21 19:17 | 33.64803 | -115.92074 | 37395 ft | 509 kts | 68° |
| 2026-04-21 19:17 | 33.66087 | -115.88119 | 37632 ft | 509 kts | 68° |
| 2026-04-21 19:17 | 33.67370 | -115.84219 | 37867 ft | 509 kts | 68° |
| 2026-04-21 19:18 | 33.68692 | -115.80287 | 38112 ft | 508 kts | 67° |
| 2026-04-21 19:18 | 33.70039 | -115.76356 | 38385 ft | 507 kts | 67° |
| 2026-04-21 19:18 | 33.71389 | -115.72459 | 38678 ft | 505 kts | 66° |
| 2026-04-21 19:18 | 33.72745 | -115.68567 | 38873 ft | 505 kts | 66° |
| 2026-04-21 19:19 | 33.75472 | -115.60748 | 38950 ft | 508 kts | 66° |
| 2026-04-21 19:19 | 33.78180 | -115.52948 | 38949 ft | 503 kts | 67° |
| 2026-04-21 19:20 | 33.80854 | -115.45213 | 38939 ft | 498 kts | 67° |
| 2026-04-21 19:20 | 33.83503 | -115.37529 | 38947 ft | 495 kts | 67° |
| 2026-04-21 19:21 | 33.86112 | -115.29942 | 38952 ft | 493 kts | 67° |
| 2026-04-21 19:21 | 33.88728 | -115.22316 | 38948 ft | 493 kts | 67° |
| 2026-04-21 19:22 | 33.91343 | -115.14678 | 38946 ft | 494 kts | 67° |
| 2026-04-21 19:22 | 33.93963 | -115.07004 | 38949 ft | 496 kts | 67° |
| 2026-04-21 19:23 | 33.96590 | -114.99293 | 38929 ft | 498 kts | 68° |
| 2026-04-21 19:23 | 33.99199 | -114.91613 | 38930 ft | 499 kts | 68° |
| 2026-04-21 19:24 | 34.01825 | -114.83867 | 38939 ft | 499 kts | 68° |
| 2026-04-21 19:24 | 34.04448 | -114.76110 | 38935 ft | 499 kts | 68° |
| 2026-04-21 19:25 | 34.07060 | -114.68365 | 38938 ft | 498 kts | 68° |
| 2026-04-21 19:25 | 34.09663 | -114.60627 | 38920 ft | 498 kts | 68° |
| 2026-04-21 19:26 | 34.12260 | -114.52891 | 38931 ft | 496 kts | 68° |
| 2026-04-21 19:26 | 34.14843 | -114.45173 | 38931 ft | 495 kts | 68° |
| 2026-04-21 19:27 | 34.17401 | -114.37515 | 38919 ft | 494 kts | 68° |
| 2026-04-21 19:27 | 34.19967 | -114.29811 | 38931 ft | 493 kts | 68° |
| 2026-04-21 19:28 | 34.22093 | -114.23412 | 38929 ft | 493 kts | 68° |
| 2026-04-21 19:28 | 34.24637 | -114.15741 | 38931 ft | 492 kts | 68° |
| 2026-04-21 19:29 | 34.27160 | -114.08053 | 38936 ft | 491 kts | 69° |
| 2026-04-21 19:29 | 34.29391 | -114.00253 | 38943 ft | 491 kts | 71° |
| 2026-04-21 19:30 | 34.31499 | -113.92404 | 38957 ft | 490 kts | 72° |
| 2026-04-21 19:30 | 34.33623 | -113.84554 | 38946 ft | 490 kts | 71° |
| 2026-04-21 19:31 | 34.35767 | -113.76727 | 38938 ft | 491 kts | 71° |
| 2026-04-21 19:31 | 34.37921 | -113.68878 | 38937 ft | 491 kts | 71° |
| 2026-04-21 19:32 | 34.40053 | -113.61091 | 38943 ft | 490 kts | 71° |
| 2026-04-21 19:32 | 34.42207 | -113.53196 | 38944 ft | 490 kts | 71° |
| 2026-04-21 19:33 | 34.44326 | -113.45401 | 38950 ft | 491 kts | 71° |
| 2026-04-21 19:33 | 34.46455 | -113.37547 | 38945 ft | 491 kts | 71° |
| 2026-04-21 19:34 | 34.48583 | -113.29674 | 38962 ft | 491 kts | 71° |
| 2026-04-21 19:34 | 34.50703 | -113.21811 | 38961 ft | 491 kts | 71° |
| 2026-04-21 19:35 | 34.53880 | -113.09980 | 38966 ft | 492 kts | 70° |
| 2026-04-21 19:36 | 34.55994 | -113.02081 | 38971 ft | 492 kts | 70° |
| 2026-04-21 19:36 | 34.58102 | -112.94182 | 38977 ft | 492 kts | 70° |
| 2026-04-21 19:37 | 34.60207 | -112.86271 | 38978 ft | 492 kts | 71° |
| 2026-04-21 19:37 | 34.62307 | -112.78354 | 38982 ft | 492 kts | 71° |
| 2026-04-21 19:38 | 34.64399 | -112.70442 | 38987 ft | 492 kts | 71° |
| 2026-04-21 19:38 | 34.66485 | -112.62530 | 38973 ft | 491 kts | 71° |
| 2026-04-21 19:39 | 34.68559 | -112.54645 | 38975 ft | 490 kts | 71° |
| 2026-04-21 19:39 | 34.70683 | -112.46791 | 39168 ft | 488 kts | 66° |
| 2026-04-21 19:40 | 34.73432 | -112.39351 | 39169 ft | 484 kts | 62° |
| 2026-04-21 19:40 | 34.76370 | -112.31949 | 39136 ft | 482 kts | 62° |
| 2026-04-21 19:41 | 34.79231 | -112.24636 | 39089 ft | 481 kts | 62° |
| 2026-04-21 19:41 | 34.82054 | -112.17270 | 39050 ft | 480 kts | 63° |
| 2026-04-21 19:42 | 34.84850 | -112.09904 | 39049 ft | 478 kts | 63° |
| 2026-04-21 19:42 | 34.87636 | -112.02546 | 39097 ft | 478 kts | 63° |
| 2026-04-21 19:43 | 34.90416 | -111.95192 | 39127 ft | 477 kts | 63° |
| 2026-04-21 19:43 | 34.93189 | -111.87843 | 39155 ft | 478 kts | 63° |
| 2026-04-21 19:44 | 34.95962 | -111.80478 | 39144 ft | 479 kts | 63° |
| 2026-04-21 19:44 | 34.98738 | -111.73089 | 39154 ft | 480 kts | 64° |
| 2026-04-21 19:45 | 35.01522 | -111.65661 | 39242 ft | 481 kts | 64° |
| 2026-04-21 19:45 | 35.04285 | -111.58273 | 39239 ft | 482 kts | 64° |
| 2026-04-21 19:45 | 35.05673 | -111.54554 | 39038 ft | 482 kts | 64° |
| 2026-04-21 19:46 | 35.07063 | -111.50825 | 39040 ft | 483 kts | 64° |
| 2026-04-21 19:46 | 35.09839 | -111.43367 | 39039 ft | 483 kts | 64° |
| 2026-04-21 19:47 | 35.12613 | -111.35896 | 39025 ft | 482 kts | 64° |
| 2026-04-21 19:47 | 35.15380 | -111.28426 | 39024 ft | 482 kts | 64° |
| 2026-04-21 19:48 | 35.18139 | -111.20961 | 39000 ft | 482 kts | 64° |
| 2026-04-21 19:48 | 35.20890 | -111.13501 | 38987 ft | 481 kts | 64° |
| 2026-04-21 19:49 | 35.23637 | -111.06032 | 38981 ft | 481 kts | 64° |
| 2026-04-21 19:49 | 35.26375 | -110.98573 | 38969 ft | 481 kts | 64° |
| 2026-04-21 19:50 | 35.28648 | -110.92367 | 38961 ft | 481 kts | 64° |
| 2026-04-21 19:50 | 35.31838 | -110.83635 | 38964 ft | 480 kts | 64° |
| 2026-04-21 19:51 | 35.34564 | -110.76154 | 38961 ft | 481 kts | 65° |
| 2026-04-21 19:51 | 35.37269 | -110.68714 | 38963 ft | 481 kts | 65° |
| 2026-04-21 19:52 | 35.39989 | -110.61214 | 38963 ft | 482 kts | 65° |
| 2026-04-21 19:52 | 35.42706 | -110.53707 | 38974 ft | 482 kts | 65° |
| 2026-04-21 19:53 | 35.45442 | -110.46126 | 38977 ft | 483 kts | 66° |
| 2026-04-21 19:53 | 35.48136 | -110.38647 | 38979 ft | 482 kts | 66° |
| 2026-04-21 19:54 | 35.50839 | -110.31121 | 38975 ft | 481 kts | 66° |
| 2026-04-21 19:54 | 35.53531 | -110.23608 | 38971 ft | 480 kts | 66° |
| 2026-04-21 19:55 | 35.56210 | -110.16117 | 38972 ft | 479 kts | 66° |
| 2026-04-21 19:55 | 35.58875 | -110.08643 | 38982 ft | 477 kts | 67° |
| 2026-04-21 19:56 | 35.61528 | -110.01189 | 38967 ft | 475 kts | 67° |
| 2026-04-21 19:56 | 35.64163 | -109.93762 | 38969 ft | 473 kts | 67° |
| 2026-04-21 19:57 | 35.66787 | -109.86353 | 38965 ft | 472 kts | 67° |
| 2026-04-21 19:57 | 35.69882 | -109.79265 | 38971 ft | 471 kts | 57° |
| 2026-04-21 19:58 | 35.73562 | -109.72597 | 38957 ft | 470 kts | 56° |
| 2026-04-21 19:58 | 35.77259 | -109.65955 | 38950 ft | 470 kts | 57° |
| 2026-04-21 19:59 | 35.80908 | -109.59294 | 38946 ft | 469 kts | 57° |
| 2026-04-21 19:59 | 35.84528 | -109.52617 | 38944 ft | 468 kts | 57° |
| 2026-04-21 20:00 | 35.88142 | -109.45924 | 38943 ft | 469 kts | 57° |
| 2026-04-21 20:00 | 35.91726 | -109.39275 | 38946 ft | 468 kts | 58° |
| 2026-04-21 20:01 | 35.95331 | -109.32578 | 38960 ft | 469 kts | 58° |
| 2026-04-21 20:01 | 35.98936 | -109.25868 | 38955 ft | 469 kts | 58° |
| 2026-04-21 20:02 | 36.01929 | -109.20288 | 38963 ft | 469 kts | 58° |
| 2026-04-21 20:02 | 36.06136 | -109.12429 | 38965 ft | 469 kts | 58° |
| 2026-04-21 20:03 | 36.09732 | -109.05696 | 38971 ft | 469 kts | 58° |
| 2026-04-21 20:03 | 36.13322 | -108.98962 | 38961 ft | 469 kts | 58° |
| 2026-04-21 20:04 | 36.16912 | -108.92216 | 38949 ft | 469 kts | 58° |
| 2026-04-21 20:04 | 36.20491 | -108.85476 | 38954 ft | 468 kts | 58° |
| 2026-04-21 20:05 | 36.24062 | -108.78738 | 38939 ft | 468 kts | 58° |
| 2026-04-21 20:05 | 36.27627 | -108.71998 | 38943 ft | 467 kts | 58° |
| 2026-04-21 20:06 | 36.31186 | -108.65255 | 38954 ft | 466 kts | 59° |
| 2026-04-21 20:06 | 36.34733 | -108.58522 | 38955 ft | 466 kts | 59° |
| 2026-04-21 20:07 | 36.38246 | -108.51841 | 38984 ft | 465 kts | 59° |
| 2026-04-21 20:07 | 36.41204 | -108.46206 | 38980 ft | 465 kts | 59° |
| 2026-04-21 20:08 | 36.45301 | -108.38384 | 39007 ft | 464 kts | 59° |
| 2026-04-21 20:08 | 36.48820 | -108.31651 | 39007 ft | 464 kts | 59° |
| 2026-04-21 20:09 | 36.52327 | -108.24928 | 39008 ft | 464 kts | 59° |
| 2026-04-21 20:09 | 36.55834 | -108.18193 | 39008 ft | 464 kts | 59° |
| 2026-04-21 20:10 | 36.59335 | -108.11454 | 39106 ft | 464 kts | 59° |
| 2026-04-21 20:10 | 36.62833 | -108.04709 | 39105 ft | 464 kts | 59° |
| 2026-04-21 20:11 | 36.66328 | -107.97955 | 39092 ft | 464 kts | 59° |
| 2026-04-21 20:11 | 36.69826 | -107.91182 | 39073 ft | 464 kts | 59° |
| 2026-04-21 20:12 | 36.73296 | -107.84449 | 39052 ft | 465 kts | 59° |
| 2026-04-21 20:12 | 36.76221 | -107.78764 | 39026 ft | 465 kts | 59° |
| 2026-04-21 20:13 | 36.80280 | -107.70857 | 39022 ft | 466 kts | 59° |
| 2026-04-21 20:13 | 36.83773 | -107.64040 | 39039 ft | 466 kts | 59° |
| 2026-04-21 20:14 | 36.87260 | -107.57219 | 39050 ft | 466 kts | 59° |
| 2026-04-21 20:14 | 36.90157 | -107.51542 | 39037 ft | 466 kts | 60° |
| 2026-04-21 20:15 | 36.92847 | -107.44271 | 39035 ft | 460 kts | 73° |
| 2026-04-21 20:15 | 36.94824 | -107.36676 | 39013 ft | 460 kts | 75° |
| 2026-04-21 20:16 | 36.96779 | -107.29073 | 39013 ft | 460 kts | 74° |
| 2026-04-21 20:16 | 36.98773 | -107.21466 | 39015 ft | 459 kts | 74° |
| 2026-04-21 20:17 | 37.00781 | -107.13882 | 39025 ft | 459 kts | 74° |
| 2026-04-21 20:17 | 37.02786 | -107.06303 | 39028 ft | 459 kts | 74° |
| 2026-04-21 20:18 | 37.04771 | -106.98774 | 39046 ft | 458 kts | 74° |
| 2026-04-21 20:18 | 37.06766 | -106.91183 | 39052 ft | 458 kts | 74° |
| 2026-04-21 20:19 | 37.08750 | -106.83611 | 39078 ft | 458 kts | 74° |
| 2026-04-21 20:19 | 37.10731 | -106.76023 | 39095 ft | 458 kts | 74° |
| 2026-04-21 20:20 | 37.12707 | -106.68433 | 39085 ft | 458 kts | 74° |
| 2026-04-21 20:20 | 37.14676 | -106.60849 | 39108 ft | 458 kts | 74° |
| 2026-04-21 20:21 | 37.16645 | -106.53245 | 39103 ft | 458 kts | 74° |
| 2026-04-21 20:21 | 37.18604 | -106.45652 | 39100 ft | 457 kts | 74° |
| 2026-04-21 20:22 | 37.20555 | -106.38071 | 39093 ft | 457 kts | 74° |
| 2026-04-21 20:22 | 37.23470 | -106.26700 | 39079 ft | 455 kts | 74° |
| 2026-04-21 20:23 | 37.25400 | -106.19141 | 39043 ft | 455 kts | 74° |
| 2026-04-21 20:23 | 37.27323 | -106.11590 | 39053 ft | 454 kts | 74° |
| 2026-04-21 20:24 | 37.29240 | -106.04038 | 39031 ft | 454 kts | 75° |
| 2026-04-21 20:24 | 37.31137 | -105.96537 | 39031 ft | 454 kts | 74° |
| 2026-04-21 20:25 | 37.32105 | -105.92705 | 39199 ft | 453 kts | 75° |
| 2026-04-21 20:25 | 37.33046 | -105.88976 | 39207 ft | 453 kts | 75° |
| 2026-04-21 20:25 | 37.35119 | -105.81498 | 39193 ft | 456 kts | 62° |
| 2026-04-21 20:26 | 37.36994 | -105.78279 | 39251 ft | 457 kts | 51° |
| 2026-04-21 20:26 | 37.39094 | -105.75259 | 39208 ft | 459 kts | 50° |
| 2026-04-21 20:26 | 37.43360 | -105.69300 | 39180 ft | 459 kts | 50° |
| 2026-04-21 20:27 | 37.47609 | -105.63288 | 39147 ft | 459 kts | 50° |
| 2026-04-21 20:27 | 37.51822 | -105.57227 | 39107 ft | 460 kts | 50° |
| 2026-04-21 20:28 | 37.56023 | -105.51139 | 39068 ft | 460 kts | 50° |
| 2026-04-21 20:28 | 37.60223 | -105.45039 | 39019 ft | 460 kts | 50° |
| 2026-04-21 20:29 | 37.64394 | -105.38973 | 39029 ft | 460 kts | 50° |
| 2026-04-21 20:29 | 37.68598 | -105.32851 | 39018 ft | 461 kts | 50° |
| 2026-04-21 20:30 | 37.72800 | -105.26722 | 39010 ft | 461 kts | 50° |
| 2026-04-21 20:30 | 37.74914 | -105.23632 | 38503 ft | 469 kts | 50° |
| 2026-04-21 20:30 | 37.77015 | -105.20559 | 37863 ft | 467 kts | 50° |
| 2026-04-21 20:31 | 37.79131 | -105.17461 | 37226 ft | 464 kts | 50° |
| 2026-04-21 20:31 | 37.81239 | -105.14373 | 36565 ft | 463 kts | 50° |
| 2026-04-21 20:31 | 37.83341 | -105.11290 | 35894 ft | 463 kts | 50° |
| 2026-04-21 20:31 | 37.85446 | -105.08199 | 35168 ft | 464 kts | 50° |
| 2026-04-21 20:32 | 37.87557 | -105.05097 | 34374 ft | 466 kts | 50° |
| 2026-04-21 20:32 | 37.89677 | -105.01978 | 33505 ft | 469 kts | 50° |
| 2026-04-21 20:32 | 37.91806 | -104.98843 | 32617 ft | 471 kts | 50° |
| 2026-04-21 20:32 | 37.93946 | -104.95690 | 31887 ft | 470 kts | 49° |
| 2026-04-21 20:33 | 37.96061 | -104.92570 | 31290 ft | 464 kts | 49° |
| 2026-04-21 20:33 | 37.98156 | -104.89478 | 30690 ft | 460 kts | 49° |
| 2026-04-21 20:33 | 38.00230 | -104.86412 | 30112 ft | 456 kts | 49° |
| 2026-04-21 20:33 | 38.02285 | -104.83372 | 29459 ft | 452 kts | 49° |
| 2026-04-21 20:34 | 38.04322 | -104.80355 | 28820 ft | 447 kts | 49° |
| 2026-04-21 20:34 | 38.06331 | -104.77377 | 28241 ft | 441 kts | 49° |
| 2026-04-21 20:34 | 38.08315 | -104.74434 | 27653 ft | 436 kts | 49° |
| 2026-04-21 20:34 | 38.10278 | -104.71518 | 27073 ft | 432 kts | 49° |
| 2026-04-21 20:35 | 38.12210 | -104.68693 | 26507 ft | 428 kts | 44° |
| 2026-04-21 20:35 | 38.14550 | -104.66432 | 25924 ft | 421 kts | 25° |
| 2026-04-21 20:35 | 38.17279 | -104.65157 | 25382 ft | 414 kts | 9° |
| 2026-04-21 20:35 | 38.20123 | -104.64827 | 24837 ft | 408 kts | 359° |
| 2026-04-21 20:36 | 38.22954 | -104.64826 | 24246 ft | 406 kts | 358° |
| 2026-04-21 20:36 | 38.25776 | -104.64838 | 23675 ft | 405 kts | 358° |
| 2026-04-21 20:36 | 38.28590 | -104.64809 | 23009 ft | 403 kts | 359° |
| 2026-04-21 20:36 | 38.31379 | -104.64729 | 22390 ft | 400 kts | 2° |
| 2026-04-21 20:37 | 38.34134 | -104.64311 | 21833 ft | 396 kts | 7° |
| 2026-04-21 20:37 | 38.36841 | -104.63686 | 21238 ft | 394 kts | 9° |
| 2026-04-21 20:37 | 38.39520 | -104.63004 | 20667 ft | 390 kts | 9° |
| 2026-04-21 20:37 | 38.42172 | -104.62331 | 20110 ft | 387 kts | 9° |
| 2026-04-21 20:38 | 38.44808 | -104.61681 | 19538 ft | 385 kts | 9° |
| 2026-04-21 20:38 | 38.47433 | -104.61056 | 18973 ft | 383 kts | 8° |
| 2026-04-21 20:38 | 38.50048 | -104.60447 | 18400 ft | 381 kts | 8° |
| 2026-04-21 20:38 | 38.52663 | -104.59848 | 17775 ft | 380 kts | 8° |
| 2026-04-21 20:39 | 38.55255 | -104.59258 | 17170 ft | 377 kts | 8° |